sensor_id;sensor_type;location;lat;lon;timestamp;P1;durP1;ratioP1;P2;durP2;ratioP2
20012;SDS011;10167;42.852;23.042;2022-12-16T00:01:13;25.70;;;11.37;;
20012;SDS011;10167;42.852;23.042;2022-12-16T00:03:48;14.27;;;9.90;;
20012;SDS011;10167;42.852;23.042;2022-12-16T00:06:21;14.38;;;9.77;;
20012;SDS011;10167;42.852;23.042;2022-12-16T00:08:55;14.45;;;10.70;;
20012;SDS011;10167;42.852;23.042;2022-12-16T00:11:25;10.55;;;8.30;;
20012;SDS011;10167;42.852;23.042;2022-12-16T00:13:54;15.57;;;9.75;;
20012;SDS011;10167;42.852;23.042;2022-12-16T00:16:23;12.00;;;10.13;;
20012;SDS011;10167;42.852;23.042;2022-12-16T00:18:54;12.98;;;9.80;;
20012;SDS011;10167;42.852;23.042;2022-12-16T00:21:23;10.43;;;7.85;;
20012;SDS011;10167;42.852;23.042;2022-12-16T00:23:57;22.02;;;14.43;;
20012;SDS011;10167;42.852;23.042;2022-12-16T00:26:26;8.70;;;6.97;;
20012;SDS011;10167;42.852;23.042;2022-12-16T00:28:57;12.02;;;8.57;;
20012;SDS011;10167;42.852;23.042;2022-12-16T00:31:26;8.18;;;7.03;;
20012;SDS011;10167;42.852;23.042;2022-12-16T00:33:57;12.43;;;7.95;;
20012;SDS011;10167;42.852;23.042;2022-12-16T00:36:27;18.00;;;7.85;;
20012;SDS011;10167;42.852;23.042;2022-12-16T00:38:56;10.82;;;8.48;;
20012;SDS011;10167;42.852;23.042;2022-12-16T00:41:26;17.08;;;10.27;;
20012;SDS011;10167;42.852;23.042;2022-12-16T00:43:55;11.75;;;7.50;;
20012;SDS011;10167;42.852;23.042;2022-12-16T00:46:25;14.18;;;7.75;;
20012;SDS011;10167;42.852;23.042;2022-12-16T00:48:54;8.00;;;7.30;;
20012;SDS011;10167;42.852;23.042;2022-12-16T00:51:25;18.48;;;8.10;;
20012;SDS011;10167;42.852;23.042;2022-12-16T00:53:54;14.50;;;9.52;;
20012;SDS011;10167;42.852;23.042;2022-12-16T00:56:24;11.85;;;7.60;;
20012;SDS011;10167;42.852;23.042;2022-12-16T00:58:53;9.95;;;8.40;;
20012;SDS011;10167;42.852;23.042;2022-12-16T01:01:23;20.02;;;14.57;;
20012;SDS011;10167;42.852;23.042;2022-12-16T01:03:54;10.05;;;6.50;;
20012;SDS011;10167;42.852;23.042;2022-12-16T01:06:26;15.18;;;10.80;;
20012;SDS011;10167;42.852;23.042;2022-12-16T01:08:56;9.07;;;8.25;;
20012;SDS011;10167;42.852;23.042;2022-12-16T01:11:25;11.63;;;7.15;;
20012;SDS011;10167;42.852;23.042;2022-12-16T01:13:54;10.23;;;6.28;;
20012;SDS011;10167;42.852;23.042;2022-12-16T01:16:26;17.70;;;6.35;;
20012;SDS011;10167;42.852;23.042;2022-12-16T01:18:57;9.05;;;8.27;;
20012;SDS011;10167;42.852;23.042;2022-12-16T01:21:28;16.10;;;9.23;;
20012;SDS011;10167;42.852;23.042;2022-12-16T01:23:57;30.50;;;8.63;;
20012;SDS011;10167;42.852;23.042;2022-12-16T01:26:26;22.40;;;8.05;;
20012;SDS011;10167;42.852;23.042;2022-12-16T01:28:56;14.80;;;10.30;;
20012;SDS011;10167;42.852;23.042;2022-12-16T01:31:26;9.05;;;7.03;;
20012;SDS011;10167;42.852;23.042;2022-12-16T01:33:55;7.53;;;6.25;;
20012;SDS011;10167;42.852;23.042;2022-12-16T01:36:27;6.82;;;6.07;;
20012;SDS011;10167;42.852;23.042;2022-12-16T01:38:57;6.25;;;5.65;;
20012;SDS011;10167;42.852;23.042;2022-12-16T01:41:27;8.30;;;6.10;;
20012;SDS011;10167;42.852;23.042;2022-12-16T01:44:09;6.75;;;4.78;;
20012;SDS011;10167;42.852;23.042;2022-12-16T01:46:42;11.90;;;4.95;;
20012;SDS011;10167;42.852;23.042;2022-12-16T01:49:14;6.10;;;5.47;;
20012;SDS011;10167;42.852;23.042;2022-12-16T01:51:51;2.45;;;2.30;;
20012;SDS011;10167;42.852;23.042;2022-12-16T01:54:27;10.07;;;5.32;;
20012;SDS011;10167;42.852;23.042;2022-12-16T01:56:59;8.65;;;5.78;;
20012;SDS011;10167;42.852;23.042;2022-12-16T01:59:31;4.17;;;3.80;;
20012;SDS011;10167;42.852;23.042;2022-12-16T02:02:03;7.20;;;4.65;;
20012;SDS011;10167;42.852;23.042;2022-12-16T02:04:33;9.55;;;6.43;;
20012;SDS011;10167;42.852;23.042;2022-12-16T02:07:23;5.68;;;5.05;;
20012;SDS011;10167;42.852;23.042;2022-12-16T02:09:53;15.93;;;8.38;;
20012;SDS011;10167;42.852;23.042;2022-12-16T02:12:24;6.80;;;4.65;;
20012;SDS011;10167;42.852;23.042;2022-12-16T02:15:03;7.30;;;5.43;;
20012;SDS011;10167;42.852;23.042;2022-12-16T02:17:45;10.40;;;6.10;;
20012;SDS011;10167;42.852;23.042;2022-12-16T02:23:53;10.57;;;6.20;;
20012;SDS011;10167;42.852;23.042;2022-12-16T02:32:56;4.07;;;3.58;;
20012;SDS011;10167;42.852;23.042;2022-12-16T02:35:38;5.43;;;3.85;;
20012;SDS011;10167;42.852;23.042;2022-12-16T02:38:15;6.47;;;5.43;;
20012;SDS011;10167;42.852;23.042;2022-12-16T02:40:51;6.43;;;5.82;;
20012;SDS011;10167;42.852;23.042;2022-12-16T02:43:35;6.10;;;5.28;;
20012;SDS011;10167;42.852;23.042;2022-12-16T02:46:15;4.88;;;4.00;;
20012;SDS011;10167;42.852;23.042;2022-12-16T02:48:48;4.57;;;4.05;;
20012;SDS011;10167;42.852;23.042;2022-12-16T02:51:17;6.65;;;4.70;;
20012;SDS011;10167;42.852;23.042;2022-12-16T02:53:47;10.02;;;7.00;;
20012;SDS011;10167;42.852;23.042;2022-12-16T02:56:22;5.85;;;5.00;;
20012;SDS011;10167;42.852;23.042;2022-12-16T02:59:02;4.18;;;3.88;;
20012;SDS011;10167;42.852;23.042;2022-12-16T03:01:46;12.32;;;7.70;;
20012;SDS011;10167;42.852;23.042;2022-12-16T03:04:24;6.22;;;5.28;;
20012;SDS011;10167;42.852;23.042;2022-12-16T03:06:59;5.32;;;4.72;;
20012;SDS011;10167;42.852;23.042;2022-12-16T03:09:31;2.22;;;2.03;;
20012;SDS011;10167;42.852;23.042;2022-12-16T03:12:03;4.05;;;3.75;;
20012;SDS011;10167;42.852;23.042;2022-12-16T03:14:41;8.48;;;4.88;;
20012;SDS011;10167;42.852;23.042;2022-12-16T03:17:12;4.10;;;3.60;;
20012;SDS011;10167;42.852;23.042;2022-12-16T03:19:48;4.93;;;3.65;;
20012;SDS011;10167;42.852;23.042;2022-12-16T03:22:23;17.15;;;4.32;;
20012;SDS011;10167;42.852;23.042;2022-12-16T03:24:57;8.52;;;3.65;;
20012;SDS011;10167;42.852;23.042;2022-12-16T03:27:29;5.13;;;4.65;;
20012;SDS011;10167;42.852;23.042;2022-12-16T03:30:02;4.85;;;2.75;;
20012;SDS011;10167;42.852;23.042;2022-12-16T03:32:36;4.60;;;2.95;;
20012;SDS011;10167;42.852;23.042;2022-12-16T03:35:11;3.78;;;3.45;;
20012;SDS011;10167;42.852;23.042;2022-12-16T03:37:43;4.30;;;2.00;;
20012;SDS011;10167;42.852;23.042;2022-12-16T03:40:16;7.03;;;4.40;;
20012;SDS011;10167;42.852;23.042;2022-12-16T03:42:49;2.13;;;1.92;;
20012;SDS011;10167;42.852;23.042;2022-12-16T03:45:22;5.55;;;3.15;;
20012;SDS011;10167;42.852;23.042;2022-12-16T03:47:55;4.32;;;2.78;;
20012;SDS011;10167;42.852;23.042;2022-12-16T03:50:28;3.22;;;3.00;;
20012;SDS011;10167;42.852;23.042;2022-12-16T03:53:00;3.53;;;2.30;;
20012;SDS011;10167;42.852;23.042;2022-12-16T03:55:30;2.08;;;1.92;;
20012;SDS011;10167;42.852;23.042;2022-12-16T03:58:00;4.10;;;2.30;;
20012;SDS011;10167;42.852;23.042;2022-12-16T04:00:29;4.90;;;3.22;;
20012;SDS011;10167;42.852;23.042;2022-12-16T04:02:59;3.10;;;2.80;;
20012;SDS011;10167;42.852;23.042;2022-12-16T04:05:30;7.45;;;3.53;;
20012;SDS011;10167;42.852;23.042;2022-12-16T04:08:00;3.65;;;3.17;;
20012;SDS011;10167;42.852;23.042;2022-12-16T04:10:29;1.02;;;1.02;;
20012;SDS011;10167;42.852;23.042;2022-12-16T04:13:16;3.92;;;2.03;;
20012;SDS011;10167;42.852;23.042;2022-12-16T04:16:03;1.05;;;1.05;;
20012;SDS011;10167;42.852;23.042;2022-12-16T04:18:50;2.70;;;1.85;;
20012;SDS011;10167;42.852;23.042;2022-12-16T04:21:37;2.85;;;2.63;;
20012;SDS011;10167;42.852;23.042;2022-12-16T04:24:24;0.40;;;0.40;;
20012;SDS011;10167;42.852;23.042;2022-12-16T04:26:56;3.75;;;2.17;;
20012;SDS011;10167;42.852;23.042;2022-12-16T04:29:43;3.83;;;1.58;;
20012;SDS011;10167;42.852;23.042;2022-12-16T04:32:31;2.90;;;1.95;;
20012;SDS011;10167;42.852;23.042;2022-12-16T04:35:15;2.33;;;1.77;;
20012;SDS011;10167;42.852;23.042;2022-12-16T04:38:03;1.10;;;1.10;;
20012;SDS011;10167;42.852;23.042;2022-12-16T04:40:50;1.35;;;1.33;;
20012;SDS011;10167;42.852;23.042;2022-12-16T04:43:36;5.78;;;4.38;;
20012;SDS011;10167;42.852;23.042;2022-12-16T04:46:23;3.97;;;2.58;;
20012;SDS011;10167;42.852;23.042;2022-12-16T04:49:10;2.50;;;2.17;;
20012;SDS011;10167;42.852;23.042;2022-12-16T04:51:57;1.98;;;1.77;;
20012;SDS011;10167;42.852;23.042;2022-12-16T04:54:44;2.13;;;1.92;;
20012;SDS011;10167;42.852;23.042;2022-12-16T04:57:31;2.25;;;2.08;;
20012;SDS011;10167;42.852;23.042;2022-12-16T05:00:17;1.00;;;1.00;;
20012;SDS011;10167;42.852;23.042;2022-12-16T05:03:04;3.03;;;2.83;;
20012;SDS011;10167;42.852;23.042;2022-12-16T05:05:51;2.20;;;1.98;;
20012;SDS011;10167;42.852;23.042;2022-12-16T05:08:39;5.05;;;4.57;;
20012;SDS011;10167;42.852;23.042;2022-12-16T05:11:27;11.70;;;5.03;;
20012;SDS011;10167;42.852;23.042;2022-12-16T05:14:14;4.90;;;4.60;;
20012;SDS011;10167;42.852;23.042;2022-12-16T05:17:02;2.67;;;2.45;;
20012;SDS011;10167;42.852;23.042;2022-12-16T05:19:49;4.28;;;3.70;;
20012;SDS011;10167;42.852;23.042;2022-12-16T05:22:37;2.97;;;2.20;;
20012;SDS011;10167;42.852;23.042;2022-12-16T05:25:23;2.50;;;2.30;;
20012;SDS011;10167;42.852;23.042;2022-12-16T05:28:11;2.10;;;2.00;;
20012;SDS011;10167;42.852;23.042;2022-12-16T05:30:57;3.35;;;2.50;;
20012;SDS011;10167;42.852;23.042;2022-12-16T05:33:44;2.85;;;2.33;;
20012;SDS011;10167;42.852;23.042;2022-12-16T05:36:30;6.75;;;3.45;;
20012;SDS011;10167;42.852;23.042;2022-12-16T05:39:28;1.73;;;1.60;;
20012;SDS011;10167;42.852;23.042;2022-12-16T05:42:14;8.30;;;2.55;;
20012;SDS011;10167;42.852;23.042;2022-12-16T05:45:01;8.30;;;3.67;;
20012;SDS011;10167;42.852;23.042;2022-12-16T05:47:48;3.17;;;2.85;;
20012;SDS011;10167;42.852;23.042;2022-12-16T05:50:34;3.80;;;3.50;;
20012;SDS011;10167;42.852;23.042;2022-12-16T05:53:21;4.22;;;3.83;;
20012;SDS011;10167;42.852;23.042;2022-12-16T05:56:08;5.60;;;2.97;;
20012;SDS011;10167;42.852;23.042;2022-12-16T05:58:55;4.25;;;3.17;;
20012;SDS011;10167;42.852;23.042;2022-12-16T06:01:43;3.30;;;3.00;;
20012;SDS011;10167;42.852;23.042;2022-12-16T06:04:29;6.05;;;3.63;;
20012;SDS011;10167;42.852;23.042;2022-12-16T06:07:16;2.05;;;1.95;;
20012;SDS011;10167;42.852;23.042;2022-12-16T06:10:03;2.35;;;1.88;;
20012;SDS011;10167;42.852;23.042;2022-12-16T06:12:50;4.47;;;1.80;;
20012;SDS011;10167;42.852;23.042;2022-12-16T06:15:37;7.97;;;7.13;;
20012;SDS011;10167;42.852;23.042;2022-12-16T06:18:37;6.47;;;5.82;;
20012;SDS011;10167;42.852;23.042;2022-12-16T06:21:23;4.25;;;3.85;;
20012;SDS011;10167;42.852;23.042;2022-12-16T06:24:10;2.08;;;1.98;;
20012;SDS011;10167;42.852;23.042;2022-12-16T06:26:57;5.25;;;4.75;;
20012;SDS011;10167;42.852;23.042;2022-12-16T06:29:45;4.55;;;4.13;;
20012;SDS011;10167;42.852;23.042;2022-12-16T06:32:32;6.60;;;4.55;;
20012;SDS011;10167;42.852;23.042;2022-12-16T06:35:20;14.95;;;5.68;;
20012;SDS011;10167;42.852;23.042;2022-12-16T06:38:06;8.10;;;5.85;;
20012;SDS011;10167;42.852;23.042;2022-12-16T06:40:53;5.32;;;4.22;;
20012;SDS011;10167;42.852;23.042;2022-12-16T06:43:39;5.32;;;3.92;;
20012;SDS011;10167;42.852;23.042;2022-12-16T06:46:26;9.30;;;6.18;;
20012;SDS011;10167;42.852;23.042;2022-12-16T06:49:13;11.82;;;7.32;;
20012;SDS011;10167;42.852;23.042;2022-12-16T06:52:01;7.43;;;6.45;;
20012;SDS011;10167;42.852;23.042;2022-12-16T06:54:48;10.02;;;6.93;;
20012;SDS011;10167;42.852;23.042;2022-12-16T06:57:36;12.60;;;7.85;;
20012;SDS011;10167;42.852;23.042;2022-12-16T07:00:23;10.02;;;7.18;;
20012;SDS011;10167;42.852;23.042;2022-12-16T07:03:09;20.15;;;10.43;;
20012;SDS011;10167;42.852;23.042;2022-12-16T07:06:01;15.68;;;9.07;;
20012;SDS011;10167;42.852;23.042;2022-12-16T07:08:52;11.00;;;8.38;;
20012;SDS011;10167;42.852;23.042;2022-12-16T07:11:39;7.53;;;6.82;;
20012;SDS011;10167;42.852;23.042;2022-12-16T07:14:33;17.50;;;10.73;;
20012;SDS011;10167;42.852;23.042;2022-12-16T07:17:20;9.57;;;8.05;;
20012;SDS011;10167;42.852;23.042;2022-12-16T07:20:06;21.38;;;7.93;;
20012;SDS011;10167;42.852;23.042;2022-12-16T07:22:54;9.35;;;7.43;;
20012;SDS011;10167;42.852;23.042;2022-12-16T07:25:47;26.67;;;9.70;;
20012;SDS011;10167;42.852;23.042;2022-12-16T07:28:34;12.43;;;9.30;;
20012;SDS011;10167;42.852;23.042;2022-12-16T07:31:21;10.80;;;9.50;;
20012;SDS011;10167;42.852;23.042;2022-12-16T07:34:08;9.13;;;8.30;;
20012;SDS011;10167;42.852;23.042;2022-12-16T07:36:55;10.18;;;9.23;;
20012;SDS011;10167;42.852;23.042;2022-12-16T07:39:41;9.20;;;7.93;;
20012;SDS011;10167;42.852;23.042;2022-12-16T07:42:30;9.43;;;6.30;;
20012;SDS011;10167;42.852;23.042;2022-12-16T07:45:17;9.15;;;8.02;;
20012;SDS011;10167;42.852;23.042;2022-12-16T07:48:11;7.25;;;6.38;;
20012;SDS011;10167;42.852;23.042;2022-12-16T07:50:57;33.92;;;6.47;;
20012;SDS011;10167;42.852;23.042;2022-12-16T07:53:44;6.80;;;4.43;;
20012;SDS011;10167;42.852;23.042;2022-12-16T07:56:31;10.80;;;7.28;;
20012;SDS011;10167;42.852;23.042;2022-12-16T07:59:19;16.65;;;10.15;;
20012;SDS011;10167;42.852;23.042;2022-12-16T08:02:07;18.05;;;8.25;;
20012;SDS011;10167;42.852;23.042;2022-12-16T08:04:55;9.15;;;6.63;;
20012;SDS011;10167;42.852;23.042;2022-12-16T08:07:41;10.55;;;7.65;;
20012;SDS011;10167;42.852;23.042;2022-12-16T08:10:28;8.15;;;5.20;;
20012;SDS011;10167;42.852;23.042;2022-12-16T08:13:14;6.68;;;5.55;;
20012;SDS011;10167;42.852;23.042;2022-12-16T08:16:03;11.98;;;7.43;;
20012;SDS011;10167;42.852;23.042;2022-12-16T08:18:59;7.50;;;6.72;;
20012;SDS011;10167;42.852;23.042;2022-12-16T08:21:47;13.50;;;8.23;;
20012;SDS011;10167;42.852;23.042;2022-12-16T08:24:48;13.32;;;7.82;;
20012;SDS011;10167;42.852;23.042;2022-12-16T08:27:35;13.13;;;8.07;;
20012;SDS011;10167;42.852;23.042;2022-12-16T08:30:21;14.60;;;8.65;;
20012;SDS011;10167;42.852;23.042;2022-12-16T08:33:10;14.65;;;7.22;;
20012;SDS011;10167;42.852;23.042;2022-12-16T08:35:57;10.48;;;4.18;;
20012;SDS011;10167;42.852;23.042;2022-12-16T08:38:44;12.32;;;9.13;;
20012;SDS011;10167;42.852;23.042;2022-12-16T08:41:31;13.52;;;6.32;;
20012;SDS011;10167;42.852;23.042;2022-12-16T08:44:18;13.23;;;9.18;;
20012;SDS011;10167;42.852;23.042;2022-12-16T08:47:05;10.40;;;7.65;;
20012;SDS011;10167;42.852;23.042;2022-12-16T08:49:52;12.57;;;7.47;;
20012;SDS011;10167;42.852;23.042;2022-12-16T08:52:39;11.98;;;6.60;;
20012;SDS011;10167;42.852;23.042;2022-12-16T08:55:25;10.25;;;8.00;;
20012;SDS011;10167;42.852;23.042;2022-12-16T08:58:12;7.97;;;5.40;;
20012;SDS011;10167;42.852;23.042;2022-12-16T09:01:00;15.43;;;6.63;;
20012;SDS011;10167;42.852;23.042;2022-12-16T09:03:47;23.85;;;9.38;;
20012;SDS011;10167;42.852;23.042;2022-12-16T09:06:35;13.82;;;11.52;;
20012;SDS011;10167;42.852;23.042;2022-12-16T09:09:24;24.13;;;13.00;;
20012;SDS011;10167;42.852;23.042;2022-12-16T09:12:13;21.17;;;13.27;;
20012;SDS011;10167;42.852;23.042;2022-12-16T09:15:00;22.40;;;10.65;;
20012;SDS011;10167;42.852;23.042;2022-12-16T09:17:51;10.57;;;7.07;;
20012;SDS011;10167;42.852;23.042;2022-12-16T09:20:38;17.05;;;6.63;;
20012;SDS011;10167;42.852;23.042;2022-12-16T09:23:26;7.45;;;5.97;;
20012;SDS011;10167;42.852;23.042;2022-12-16T09:26:13;7.63;;;5.53;;
20012;SDS011;10167;42.852;23.042;2022-12-16T09:29:00;7.70;;;6.10;;
20012;SDS011;10167;42.852;23.042;2022-12-16T09:31:47;5.70;;;4.65;;
20012;SDS011;10167;42.852;23.042;2022-12-16T09:34:34;16.40;;;6.53;;
20012;SDS011;10167;42.852;23.042;2022-12-16T09:37:21;4.15;;;3.58;;
20012;SDS011;10167;42.852;23.042;2022-12-16T09:40:10;4.53;;;2.30;;
20012;SDS011;10167;42.852;23.042;2022-12-16T09:43:01;8.82;;;2.63;;
20012;SDS011;10167;42.852;23.042;2022-12-16T09:45:58;4.90;;;1.50;;
20012;SDS011;10167;42.852;23.042;2022-12-16T09:48:53;11.40;;;2.80;;
20012;SDS011;10167;42.852;23.042;2022-12-16T09:51:51;2.53;;;2.17;;
20012;SDS011;10167;42.852;23.042;2022-12-16T09:54:45;5.38;;;1.77;;
20012;SDS011;10167;42.852;23.042;2022-12-16T09:57:34;6.50;;;2.95;;
20012;SDS011;10167;42.852;23.042;2022-12-16T10:00:22;4.75;;;2.65;;
20012;SDS011;10167;42.852;23.042;2022-12-16T10:03:13;1.15;;;1.15;;
20012;SDS011;10167;42.852;23.042;2022-12-16T10:06:08;3.85;;;3.42;;
20012;SDS011;10167;42.852;23.042;2022-12-16T10:09:07;3.50;;;2.47;;
20012;SDS011;10167;42.852;23.042;2022-12-16T10:12:03;7.22;;;2.97;;
20012;SDS011;10167;42.852;23.042;2022-12-16T10:14:59;1.90;;;1.80;;
20012;SDS011;10167;42.852;23.042;2022-12-16T10:17:57;2.97;;;2.42;;
20012;SDS011;10167;42.852;23.042;2022-12-16T10:20:50;4.03;;;2.80;;
20012;SDS011;10167;42.852;23.042;2022-12-16T10:23:41;2.95;;;2.70;;
20012;SDS011;10167;42.852;23.042;2022-12-16T10:26:32;7.60;;;3.55;;
20012;SDS011;10167;42.852;23.042;2022-12-16T10:29:26;10.05;;;4.32;;
20012;SDS011;10167;42.852;23.042;2022-12-16T10:32:18;4.38;;;2.25;;
20012;SDS011;10167;42.852;23.042;2022-12-16T10:35:17;2.55;;;2.35;;
20012;SDS011;10167;42.852;23.042;2022-12-16T10:38:10;7.63;;;3.72;;
20012;SDS011;10167;42.852;23.042;2022-12-16T10:41:03;3.13;;;2.53;;
20012;SDS011;10167;42.852;23.042;2022-12-16T10:43:50;5.53;;;3.13;;
20012;SDS011;10167;42.852;23.042;2022-12-16T10:49:41;1.90;;;1.50;;
20012;SDS011;10167;42.852;23.042;2022-12-16T10:52:29;3.15;;;2.85;;
20012;SDS011;10167;42.852;23.042;2022-12-16T10:55:18;3.10;;;2.20;;
20012;SDS011;10167;42.852;23.042;2022-12-16T10:58:14;0.50;;;0.50;;
20012;SDS011;10167;42.852;23.042;2022-12-16T11:01:19;2.78;;;2.30;;
20012;SDS011;10167;42.852;23.042;2022-12-16T11:10:26;4.45;;;3.38;;
20012;SDS011;10167;42.852;23.042;2022-12-16T11:13:21;3.67;;;2.55;;
20012;SDS011;10167;42.852;23.042;2022-12-16T11:16:13;8.05;;;2.33;;
20012;SDS011;10167;42.852;23.042;2022-12-16T11:19:02;2.60;;;1.52;;
20012;SDS011;10167;42.852;23.042;2022-12-16T11:21:49;1.13;;;1.13;;
20012;SDS011;10167;42.852;23.042;2022-12-16T11:25:04;4.07;;;1.98;;
20012;SDS011;10167;42.852;23.042;2022-12-16T11:28:10;4.53;;;3.25;;
20012;SDS011;10167;42.852;23.042;2022-12-16T11:30:59;3.95;;;3.10;;
20012;SDS011;10167;42.852;23.042;2022-12-16T11:33:49;2.95;;;1.77;;
20012;SDS011;10167;42.852;23.042;2022-12-16T11:36:38;6.07;;;2.15;;
20012;SDS011;10167;42.852;23.042;2022-12-16T11:39:28;2.38;;;2.15;;
20012;SDS011;10167;42.852;23.042;2022-12-16T11:42:24;3.90;;;1.52;;
20012;SDS011;10167;42.852;23.042;2022-12-16T11:45:14;1.63;;;1.30;;
20012;SDS011;10167;42.852;23.042;2022-12-16T11:48:06;3.28;;;1.88;;
20012;SDS011;10167;42.852;23.042;2022-12-16T11:53:47;4.50;;;2.95;;
20012;SDS011;10167;42.852;23.042;2022-12-16T11:56:38;2.25;;;2.05;;
20012;SDS011;10167;42.852;23.042;2022-12-16T11:59:31;3.60;;;2.38;;
20012;SDS011;10167;42.852;23.042;2022-12-16T12:02:24;6.30;;;3.28;;
20012;SDS011;10167;42.852;23.042;2022-12-16T12:05:22;3.63;;;2.10;;
20012;SDS011;10167;42.852;23.042;2022-12-16T12:08:17;2.50;;;1.98;;
20012;SDS011;10167;42.852;23.042;2022-12-16T12:11:15;2.33;;;2.10;;
20012;SDS011;10167;42.852;23.042;2022-12-16T12:14:11;6.75;;;2.88;;
20012;SDS011;10167;42.852;23.042;2022-12-16T12:17:07;2.38;;;2.13;;
20012;SDS011;10167;42.852;23.042;2022-12-16T12:20:11;11.48;;;4.07;;
20012;SDS011;10167;42.852;23.042;2022-12-16T12:23:18;1.17;;;0.88;;
20012;SDS011;10167;42.852;23.042;2022-12-16T12:26:12;9.32;;;3.50;;
20012;SDS011;10167;42.852;23.042;2022-12-16T12:29:03;1.63;;;1.52;;
20012;SDS011;10167;42.852;23.042;2022-12-16T12:32:00;2.17;;;2.05;;
20012;SDS011;10167;42.852;23.042;2022-12-16T12:34:59;3.38;;;2.15;;
20012;SDS011;10167;42.852;23.042;2022-12-16T12:37:56;3.13;;;2.85;;
20012;SDS011;10167;42.852;23.042;2022-12-16T12:40:49;2.20;;;2.00;;
20012;SDS011;10167;42.852;23.042;2022-12-16T12:43:47;6.55;;;3.83;;
20012;SDS011;10167;42.852;23.042;2022-12-16T12:46:44;3.17;;;2.42;;
20012;SDS011;10167;42.852;23.042;2022-12-16T12:49:40;1.75;;;1.65;;
20012;SDS011;10167;42.852;23.042;2022-12-16T12:52:41;3.88;;;3.03;;
20012;SDS011;10167;42.852;23.042;2022-12-16T12:55:43;4.25;;;3.33;;
20012;SDS011;10167;42.852;23.042;2022-12-16T12:58:38;3.38;;;2.97;;
20012;SDS011;10167;42.852;23.042;2022-12-16T13:01:28;2.63;;;2.15;;
20012;SDS011;10167;42.852;23.042;2022-12-16T13:04:18;3.33;;;1.73;;
20012;SDS011;10167;42.852;23.042;2022-12-16T13:07:07;6.22;;;2.72;;
20012;SDS011;10167;42.852;23.042;2022-12-16T13:10:28;7.07;;;2.97;;
20012;SDS011;10167;42.852;23.042;2022-12-16T13:13:27;2.80;;;2.60;;
20012;SDS011;10167;42.852;23.042;2022-12-16T13:19:55;5.07;;;4.40;;
20012;SDS011;10167;42.852;23.042;2022-12-16T13:22:42;6.95;;;5.15;;
20012;SDS011;10167;42.852;23.042;2022-12-16T13:25:31;4.38;;;3.83;;
20012;SDS011;10167;42.852;23.042;2022-12-16T13:28:23;4.60;;;4.20;;
20012;SDS011;10167;42.852;23.042;2022-12-16T13:31:11;4.20;;;3.90;;
20012;SDS011;10167;42.852;23.042;2022-12-16T13:34:02;4.28;;;3.42;;
20012;SDS011;10167;42.852;23.042;2022-12-16T13:36:52;9.70;;;7.18;;
20012;SDS011;10167;42.852;23.042;2022-12-16T13:39:58;11.13;;;5.43;;
20012;SDS011;10167;42.852;23.042;2022-12-16T13:42:51;5.40;;;4.43;;
20012;SDS011;10167;42.852;23.042;2022-12-16T13:45:40;9.07;;;5.93;;
20012;SDS011;10167;42.852;23.042;2022-12-16T13:48:29;21.02;;;8.13;;
20012;SDS011;10167;42.852;23.042;2022-12-16T13:54:48;14.63;;;7.18;;
20012;SDS011;10167;42.852;23.042;2022-12-16T13:57:40;11.13;;;6.45;;
20012;SDS011;10167;42.852;23.042;2022-12-16T14:00:30;8.35;;;5.85;;
20012;SDS011;10167;42.852;23.042;2022-12-16T14:03:22;23.02;;;9.80;;
20012;SDS011;10167;42.852;23.042;2022-12-16T14:06:20;16.40;;;10.45;;
20012;SDS011;10167;42.852;23.042;2022-12-16T14:09:14;14.68;;;8.52;;
20012;SDS011;10167;42.852;23.042;2022-12-16T14:12:12;13.15;;;8.07;;
20012;SDS011;10167;42.852;23.042;2022-12-16T14:15:18;10.43;;;8.13;;
20012;SDS011;10167;42.852;23.042;2022-12-16T14:18:13;18.17;;;9.95;;
20012;SDS011;10167;42.852;23.042;2022-12-16T14:21:11;16.55;;;7.68;;
20012;SDS011;10167;42.852;23.042;2022-12-16T14:24:03;5.80;;;4.90;;
20012;SDS011;10167;42.852;23.042;2022-12-16T14:26:54;12.20;;;8.82;;
20012;SDS011;10167;42.852;23.042;2022-12-16T14:29:41;11.40;;;6.53;;
20012;SDS011;10167;42.852;23.042;2022-12-16T14:32:30;19.08;;;8.82;;
20012;SDS011;10167;42.852;23.042;2022-12-16T14:35:20;13.65;;;6.65;;
20012;SDS011;10167;42.852;23.042;2022-12-16T14:38:19;12.18;;;8.77;;
20012;SDS011;10167;42.852;23.042;2022-12-16T14:41:12;13.38;;;6.85;;
20012;SDS011;10167;42.852;23.042;2022-12-16T14:44:00;11.98;;;6.80;;
20012;SDS011;10167;42.852;23.042;2022-12-16T14:46:50;9.40;;;4.80;;
20012;SDS011;10167;42.852;23.042;2022-12-16T14:49:37;6.90;;;5.32;;
20012;SDS011;10167;42.852;23.042;2022-12-16T14:52:38;9.70;;;6.68;;
20012;SDS011;10167;42.852;23.042;2022-12-16T14:55:26;4.28;;;3.88;;
20012;SDS011;10167;42.852;23.042;2022-12-16T14:58:15;5.38;;;4.38;;
20012;SDS011;10167;42.852;23.042;2022-12-16T15:01:07;3.25;;;2.80;;
20012;SDS011;10167;42.852;23.042;2022-12-16T15:03:58;8.25;;;5.00;;
20012;SDS011;10167;42.852;23.042;2022-12-16T15:06:48;8.15;;;6.82;;
20012;SDS011;10167;42.852;23.042;2022-12-16T15:10:12;13.68;;;8.68;;
20012;SDS011;10167;42.852;23.042;2022-12-16T15:12:56;5.45;;;4.95;;
20012;SDS011;10167;42.852;23.042;2022-12-16T15:15:43;26.98;;;8.93;;
20012;SDS011;10167;42.852;23.042;2022-12-16T15:18:36;17.65;;;6.97;;
20012;SDS011;10167;42.852;23.042;2022-12-16T15:21:25;9.13;;;5.05;;
20012;SDS011;10167;42.852;23.042;2022-12-16T15:24:14;1.02;;;1.02;;
20012;SDS011;10167;42.852;23.042;2022-12-16T15:27:13;8.10;;;4.72;;
20012;SDS011;10167;42.852;23.042;2022-12-16T15:33:24;6.45;;;4.20;;
20012;SDS011;10167;42.852;23.042;2022-12-16T15:36:18;10.13;;;4.70;;
20012;SDS011;10167;42.852;23.042;2022-12-16T15:39:09;10.13;;;8.35;;
20012;SDS011;10167;42.852;23.042;2022-12-16T15:42:18;11.85;;;5.93;;
20012;SDS011;10167;42.852;23.042;2022-12-16T15:45:15;8.50;;;6.13;;
20012;SDS011;10167;42.852;23.042;2022-12-16T15:48:06;8.73;;;6.60;;
20012;SDS011;10167;42.852;23.042;2022-12-16T15:50:58;28.30;;;8.25;;
20012;SDS011;10167;42.852;23.042;2022-12-16T15:53:46;14.07;;;6.43;;
20012;SDS011;10167;42.852;23.042;2022-12-16T15:56:47;26.85;;;15.77;;
20012;SDS011;10167;42.852;23.042;2022-12-16T15:59:35;35.00;;;20.45;;
20012;SDS011;10167;42.852;23.042;2022-12-16T16:02:43;21.30;;;10.30;;
20012;SDS011;10167;42.852;23.042;2022-12-16T16:05:33;5.18;;;4.13;;
20012;SDS011;10167;42.852;23.042;2022-12-16T16:08:21;3.72;;;3.42;;
20012;SDS011;10167;42.852;23.042;2022-12-16T16:11:08;4.05;;;3.08;;
20012;SDS011;10167;42.852;23.042;2022-12-16T16:13:57;5.40;;;4.20;;
20012;SDS011;10167;42.852;23.042;2022-12-16T16:16:45;5.55;;;3.70;;
20012;SDS011;10167;42.852;23.042;2022-12-16T16:19:32;5.03;;;3.35;;
20012;SDS011;10167;42.852;23.042;2022-12-16T16:22:19;3.90;;;3.03;;
20012;SDS011;10167;42.852;23.042;2022-12-16T16:25:06;2.47;;;2.35;;
20012;SDS011;10167;42.852;23.042;2022-12-16T16:27:55;4.55;;;4.10;;
20012;SDS011;10167;42.852;23.042;2022-12-16T16:30:42;1.67;;;1.55;;
20012;SDS011;10167;42.852;23.042;2022-12-16T16:33:29;4.00;;;2.35;;
20012;SDS011;10167;42.852;23.042;2022-12-16T16:36:17;2.85;;;2.55;;
20012;SDS011;10167;42.852;23.042;2022-12-16T16:39:04;2.88;;;2.67;;
20012;SDS011;10167;42.852;23.042;2022-12-16T16:41:51;1.35;;;1.15;;
20012;SDS011;10167;42.852;23.042;2022-12-16T16:44:38;0.80;;;0.80;;
20012;SDS011;10167;42.852;23.042;2022-12-16T16:47:24;3.40;;;2.53;;
20012;SDS011;10167;42.852;23.042;2022-12-16T16:50:13;13.15;;;6.63;;